Time;durP1;ratioP1;P1;durP2;ratioP2;P2;SDS_P1;SDS_P2;PMS_P1;PMS_P2;Temp;Humidity;BMP_temperature;BMP_pressure;BME280_temperature;BME280_humidity;BME280_pressure;Samples;Min_cycle;Max_cycle;Signal;HPM_P1;HPM_P2
2023/05/04 00:01:42;;;;;;;25.20;12.77;;;;;;;8.61;84.66;102090.56;5082559;28;20025;-75
2023/05/04 00:04:08;;;;;;;24.80;12.15;;;;;;;8.57;84.63;102086.03;5083813;28;20028;-68
2023/05/04 00:06:33;;;;;;;22.90;12.40;;;;;;;8.54;85.39;102091.22;5081572;28;20383;-68
2023/05/04 00:08:58;;;;;;;23.05;11.93;;;;;;;8.54;85.27;102075.41;5084563;28;20466;-67
2023/05/04 00:11:24;;;;;;;23.58;12.07;;;;;;;8.53;85.30;102084.13;5081519;28;20029;-67
2023/05/04 00:13:49;;;;;;;26.10;12.23;;;;;;;8.52;85.22;102077.09;5083992;28;20037;-67
2023/05/04 00:16:15;;;;;;;23.75;12.25;;;;;;;8.50;85.68;102079.69;5082803;28;20025;-68
2023/05/04 00:18:40;;;;;;;23.02;12.10;;;;;;;8.51;85.54;102072.66;5082294;28;20041;-68
2023/05/04 00:21:06;;;;;;;23.00;12.18;;;;;;;8.49;84.91;102064.72;5083797;28;20111;-67
2023/05/04 00:23:31;;;;;;;23.35;12.40;;;;;;;8.37;85.86;102065.19;5080999;28;20368;-69
2023/05/04 00:25:59;;;;;;;22.40;11.55;;;;;;;8.30;86.28;102057.00;5077038;28;20052;-68
2023/05/04 00:28:25;;;;;;;22.73;12.20;;;;;;;8.27;86.01;102054.25;5083894;28;20040;-67
2023/05/04 00:30:54;;;;;;;23.15;12.35;;;;;;;8.23;87.59;102047.09;5081536;28;20040;-67
2023/05/04 00:33:20;;;;;;;24.05;12.10;;;;;;;8.24;86.43;102048.91;5083642;28;20100;-68
2023/05/04 00:35:46;;;;;;;23.20;11.98;;;;;;;8.23;87.24;102041.84;5082290;28;20051;-67
2023/05/04 00:38:12;;;;;;;24.33;12.27;;;;;;;8.23;87.87;102039.19;5082048;28;20111;-67
2023/05/04 00:40:38;;;;;;;22.23;11.52;;;;;;;8.19;87.05;102036.47;5087680;28;20020;-68
2023/05/04 00:43:03;;;;;;;23.83;11.98;;;;;;;8.14;88.41;102037.16;5085066;28;20494;-68
2023/05/04 00:45:29;;;;;;;23.98;11.98;;;;;;;8.13;88.32;102044.16;5088279;28;20036;-68
2023/05/04 00:47:55;;;;;;;23.63;11.75;;;;;;;8.18;88.34;102041.69;5085124;28;20095;-68
2023/05/04 00:50:21;;;;;;;23.00;12.00;;;;;;;8.08;88.69;102040.50;5087306;28;20069;-68
2023/05/04 00:52:48;;;;;;;22.95;11.55;;;;;;;8.09;88.77;102046.66;5086053;28;20020;-68
2023/05/04 00:55:14;;;;;;;23.20;11.75;;;;;;;8.08;89.25;102029.06;5086387;28;20048;-68
2023/05/04 00:57:40;;;;;;;22.85;11.35;;;;;;;8.07;89.22;102027.25;5087051;28;20084;-67
2023/05/04 01:00:07;;;;;;;23.52;11.63;;;;;;;8.10;88.32;102030.03;5085021;28;20032;-67
2023/05/04 01:02:33;;;;;;;22.05;11.23;;;;;;;8.07;88.90;102029.88;5069876;28;20047;-70
2023/05/04 01:05:00;;;;;;;23.42;11.20;;;;;;;8.00;89.32;102036.72;5084440;28;20036;-70
2023/05/04 01:07:42;;;;;;;23.23;11.77;;;;;;;7.99;90.05;102033.19;5087941;28;20028;-69
2023/05/04 01:10:16;;;;;;;23.67;11.63;;;;;;;7.94;89.51;102026.84;5082613;28;20564;-68
2023/05/04 01:13:01;;;;;;;22.63;11.68;;;;;;;7.89;90.51;102028.41;5086523;28;20020;-67
2023/05/04 01:15:28;;;;;;;23.33;11.45;;;;;;;7.87;90.22;102023.97;5080271;28;20413;-69
2023/05/04 01:17:53;;;;;;;22.63;11.35;;;;;;;7.81;91.33;102022.03;5087038;28;20063;-68
2023/05/04 01:20:19;;;;;;;22.65;11.57;;;;;;;7.78;90.98;102016.66;5085167;28;20056;-71
2023/05/04 01:22:45;;;;;;;22.92;11.55;;;;;;;7.70;92.57;102010.22;5068161;28;20470;-67
2023/05/04 01:25:10;;;;;;;22.08;11.40;;;;;;;7.68;93.32;102016.31;5086216;28;20024;-68
2023/05/04 01:28:07;;;;;;;23.90;11.75;;;;;;;7.65;93.69;102010.06;5066518;28;20142;-69
2023/05/04 01:30:38;;;;;;;24.15;11.90;;;;;;;7.61;93.93;102011.69;5080422;28;20131;-70
2023/05/04 01:33:03;;;;;;;23.30;11.75;;;;;;;7.50;94.50;102008.69;5087411;28;20031;-69
2023/05/04 01:35:29;;;;;;;22.67;10.98;;;;;;;7.50;95.83;102013.94;5084335;28;20033;-69
2023/05/04 01:37:55;;;;;;;23.40;11.20;;;;;;;7.48;95.90;102013.00;5086811;28;20359;-69
2023/05/04 01:40:20;;;;;;;21.75;11.20;;;;;;;7.43;96.93;102011.06;5084629;28;20032;-69
2023/05/04 01:42:45;;;;;;;22.88;11.30;;;;;;;7.41;96.92;102010.06;5085854;28;20382;-67
2023/05/04 01:45:11;;;;;;;23.40;11.50;;;;;;;7.36;97.56;102009.03;5085838;28;20036;-67
2023/05/04 01:47:37;;;;;;;24.35;11.93;;;;;;;7.35;98.13;102005.50;5084383;28;20082;-68
2023/05/04 01:50:04;;;;;;;22.67;11.48;;;;;;;7.30;98.91;102005.31;5086475;28;20102;-69
2023/05/04 01:52:29;;;;;;;24.20;11.55;;;;;;;7.35;99.29;102013.38;5083801;28;20086;-67
2023/05/04 01:54:55;;;;;;;23.10;11.50;;;;;;;7.27;99.67;102012.22;5087115;28;20539;-67
2023/05/04 01:57:20;;;;;;;23.30;12.18;;;;;;;7.24;100.00;102020.91;5084259;28;20035;-67
2023/05/04 01:59:46;;;;;;;23.35;12.00;;;;;;;7.29;100.00;102014.06;5085175;28;20127;-68
2023/05/04 02:02:11;;;;;;;23.30;11.95;;;;;;;7.26;100.00;102011.31;5067871;28;20070;-67
2023/05/04 02:04:36;;;;;;;23.98;12.18;;;;;;;7.22;100.00;102013.78;5083797;28;20038;-67
2023/05/04 02:07:01;;;;;;;23.02;11.95;;;;;;;7.20;100.00;102013.72;5086749;28;20078;-67
2023/05/04 02:09:28;;;;;;;24.23;11.38;;;;;;;7.19;100.00;102006.66;5083924;28;20028;-67
2023/05/04 02:11:53;;;;;;;22.45;11.80;;;;;;;7.17;100.00;102008.34;5086004;28;20028;-67
2023/05/04 02:14:18;;;;;;;23.30;12.00;;;;;;;7.12;100.00;102013.44;5084276;28;20390;-68
2023/05/04 02:16:44;;;;;;;23.55;11.73;;;;;;;7.11;100.00;102009.03;5084918;28;20024;-68
2023/05/04 02:19:09;;;;;;;23.27;11.55;;;;;;;7.06;100.00;102009.69;5067368;28;20028;-67
2023/05/04 02:21:35;;;;;;;22.52;12.07;;;;;;;6.99;100.00;102003.31;5083300;28;20073;-68
2023/05/04 02:24:00;;;;;;;23.33;12.00;;;;;;;7.10;100.00;102003.72;5068518;28;20119;-68
2023/05/04 02:26:26;;;;;;;23.92;12.02;;;;;;;7.06;100.00;101999.16;5083068;28;20029;-68
2023/05/04 02:28:51;;;;;;;25.02;12.25;;;;;;;6.98;100.00;101991.88;5085402;28;20552;-67
2023/05/04 02:31:16;;;;;;;24.70;12.32;;;;;;;6.99;100.00;101987.53;5084323;28;20482;-67
2023/05/04 02:33:42;;;;;;;24.98;12.57;;;;;;;6.89;100.00;101995.94;5083965;28;20455;-67
2023/05/04 02:36:07;;;;;;;24.02;12.00;;;;;;;6.86;100.00;101991.44;5085611;28;20032;-67
2023/05/04 02:38:32;;;;;;;23.92;12.18;;;;;;;6.80;100.00;101991.19;5082545;28;20039;-73
2023/05/04 02:40:58;;;;;;;23.70;12.18;;;;;;;6.75;100.00;101979.63;5078516;28;20099;-74
2023/05/04 02:43:23;;;;;;;23.85;12.65;;;;;;;6.73;100.00;101983.94;5085563;28;20111;-70
2023/05/04 02:45:49;;;;;;;23.25;12.00;;;;;;;6.72;100.00;101983.03;5083709;28;20032;-71
2023/05/04 02:48:14;;;;;;;24.58;12.38;;;;;;;6.68;100.00;101989.00;5065982;28;20029;-71
2023/05/04 02:50:40;;;;;;;25.50;12.40;;;;;;;6.67;100.00;101988.94;5085066;28;20087;-73
2023/05/04 02:53:05;;;;;;;23.88;12.15;;;;;;;6.64;100.00;101984.47;5082616;28;20029;-74
2023/05/04 02:55:30;;;;;;;23.13;12.00;;;;;;;6.61;100.00;101984.34;5085731;28;20064;-68
2023/05/04 02:57:56;;;;;;;26.08;12.90;;;;;;;6.55;100.00;101985.00;5082591;28;20055;-72
2023/05/04 03:00:21;;;;;;;23.58;12.27;;;;;;;6.50;100.00;101983.94;5084588;28;20071;-71
2023/05/04 03:02:46;;;;;;;25.73;12.43;;;;;;;6.43;100.00;101981.88;5083002;28;20024;-74
2023/05/04 03:05:12;;;;;;;24.80;12.68;;;;;;;6.42;100.00;101983.63;5083573;28;20040;-73
2023/05/04 03:07:37;;;;;;;23.50;12.25;;;;;;;6.40;100.00;101987.91;5084904;28;20032;-72
2023/05/04 03:10:03;;;;;;;23.58;12.57;;;;;;;6.41;100.00;101992.34;5082203;28;20098;-75
2023/05/04 03:12:28;;;;;;;24.60;12.65;;;;;;;6.35;100.00;101992.09;5077816;28;20111;-70
2023/05/04 03:14:54;;;;;;;24.85;12.10;;;;;;;6.27;100.00;101989.16;5085037;28;20108;-73
2023/05/04 03:17:19;;;;;;;24.75;12.32;;;;;;;6.24;100.00;101993.41;5083069;28;20038;-72
2023/05/04 03:19:45;;;;;;;24.17;12.98;;;;;;;6.19;100.00;101985.34;5083626;28;20029;-67
2023/05/04 03:22:10;;;;;;;23.98;12.57;;;;;;;6.22;100.00;101985.47;5084144;28;20044;-67
2023/05/04 03:24:36;;;;;;;23.67;12.88;;;;;;;6.17;100.00;101986.09;5082510;28;20032;-68
2023/05/04 03:27:02;;;;;;;23.45;12.20;;;;;;;6.12;100.00;101978.03;5085255;28;20410;-67
2023/05/04 03:29:27;;;;;;;24.27;12.93;;;;;;;6.11;100.00;101978.88;5081625;28;20046;-68
2023/05/04 03:31:53;;;;;;;25.02;12.95;;;;;;;6.06;100.00;101967.31;5084531;28;20031;-67
2023/05/04 03:34:20;;;;;;;24.30;12.75;;;;;;;6.04;100.00;101963.69;5064901;28;20531;-68
2023/05/04 03:36:47;;;;;;;24.42;12.88;;;;;;;6.01;100.00;101964.47;5083103;28;20033;-68
2023/05/04 03:39:12;;;;;;;23.38;12.65;;;;;;;5.99;100.00;101960.00;5083917;28;20043;-67
2023/05/04 03:41:38;;;;;;;23.52;12.10;;;;;;;5.98;100.00;101960.84;5082047;28;20029;-67
2023/05/04 03:44:03;;;;;;;24.35;12.98;;;;;;;5.92;100.00;101959.69;5085049;28;20032;-68
2023/05/04 03:46:28;;;;;;;24.77;13.13;;;;;;;5.92;100.00;101962.31;5059516;28;20033;-68
2023/05/04 03:48:54;;;;;;;23.88;12.52;;;;;;;5.94;100.00;101957.13;5084181;28;20028;-68
2023/05/04 03:51:20;;;;;;;23.35;12.27;;;;;;;5.94;100.00;101955.44;5082701;28;20036;-67
2023/05/04 03:53:46;;;;;;;23.70;12.45;;;;;;;5.94;100.00;101954.50;5083022;28;20028;-68
2023/05/04 03:56:11;;;;;;;22.90;12.00;;;;;;;5.95;100.00;101953.69;5083646;28;20411;-67
2023/05/04 03:58:36;;;;;;;24.33;12.85;;;;;;;5.92;100.00;101954.44;5081662;28;20036;-67
2023/05/04 04:01:02;;;;;;;24.73;12.95;;;;;;;5.89;100.00;101951.69;5084713;28;20036;-67
2023/05/04 04:03:28;;;;;;;23.23;13.02;;;;;;;5.91;100.00;101950.06;5081233;28;20116;-71
2023/05/04 04:05:53;;;;;;;23.70;12.57;;;;;;;5.90;100.00;101950.00;5084025;28;20043;-70
2023/05/04 04:08:19;;;;;;;24.65;12.65;;;;;;;5.91;100.00;101954.38;5082447;28;20352;-72
2023/05/04 04:10:45;;;;;;;22.73;12.43;;;;;;;5.87;100.00;101960.38;5082465;28;20039;-69
2023/05/04 04:13:10;;;;;;;24.42;12.75;;;;;;;5.87;100.00;101958.63;5083663;28;20024;-70
2023/05/04 04:15:35;;;;;;;23.85;12.98;;;;;;;5.85;100.00;101952.41;5081425;28;20064;-69
2023/05/04 04:18:01;;;;;;;25.75;12.48;;;;;;;5.84;100.00;101953.25;5084409;28;20036;-71
2023/05/04 04:20:26;;;;;;;23.42;12.90;;;;;;;5.86;100.00;101951.56;5081485;28;20490;-70
2023/05/04 04:22:52;;;;;;;24.58;13.07;;;;;;;5.86;100.00;101943.72;5065342;28;20020;-69
2023/05/04 04:25:17;;;;;;;24.27;12.50;;;;;;;5.85;100.00;101946.28;5047976;28;20078;-69
2023/05/04 04:27:42;;;;;;;23.85;12.75;;;;;;;5.89;100.00;101940.31;5082266;28;20035;-67
2023/05/04 04:30:08;;;;;;;24.92;13.10;;;;;;;5.84;100.00;101945.38;5083807;28;20036;-69
2023/05/04 04:32:34;;;;;;;23.13;12.43;;;;;;;5.86;100.00;101940.19;5081061;28;20112;-70
2023/05/04 04:34:59;;;;;;;24.63;13.15;;;;;;;5.87;100.00;101935.00;5058833;28;20475;-73
2023/05/04 04:37:25;;;;;;;25.60;13.23;;;;;;;5.91;100.00;101933.38;5083589;28;20382;-72
2023/05/04 04:39:50;;;;;;;24.58;13.18;;;;;;;5.94;100.00;101929.19;5082204;28;20408;-68
2023/05/04 04:42:16;;;;;;;25.27;13.52;;;;;;;6.03;100.00;101928.69;5082299;28;20040;-69
2023/05/04 04:44:41;;;;;;;24.33;12.90;;;;;;;6.08;100.00;101937.63;5083262;28;20017;-70
2023/05/04 04:47:07;;;;;;;23.85;13.10;;;;;;;6.10;100.00;101938.59;5081181;28;20387;-71
2023/05/04 04:49:32;;;;;;;25.35;13.30;;;;;;;6.16;100.00;101937.97;5084102;28;20032;-69
2023/05/04 04:51:57;;;;;;;24.15;12.55;;;;;;;6.20;100.00;101934.59;5080903;28;20429;-69
2023/05/04 04:54:23;;;;;;;23.67;12.20;;;;;;;6.22;100.00;101929.44;5083424;28;20036;-72
2023/05/04 04:56:48;;;;;;;24.15;12.90;;;;;;;6.24;100.00;101935.63;5082021;28;20518;-70
2023/05/04 04:59:13;;;;;;;25.05;12.95;;;;;;;6.28;100.00;101933.19;5082033;28;20056;-70
2023/05/04 05:01:40;;;;;;;24.33;13.20;;;;;;;6.31;100.00;101936.78;5083531;28;20085;-69
2023/05/04 05:04:06;;;;;;;25.13;13.05;;;;;;;6.36;100.00;101940.47;5081018;28;20107;-69
2023/05/04 05:06:32;;;;;;;24.75;12.30;;;;;;;6.38;100.00;101934.44;5084209;28;20540;-73
2023/05/04 05:08:57;;;;;;;24.40;12.75;;;;;;;6.43;100.00;101934.59;5080712;28;20040;-69
2023/05/04 05:11:23;;;;;;;25.20;12.75;;;;;;;6.43;100.00;101945.13;5082936;28;20075;-70
2023/05/04 05:13:48;;;;;;;24.90;13.13;;;;;;;6.54;100.00;101940.25;5082239;28;20032;-72
2023/05/04 05:16:14;;;;;;;23.83;12.20;;;;;;;6.59;100.00;101942.22;5081750;28;20033;-71
2023/05/04 05:18:39;;;;;;;23.73;12.20;;;;;;;6.63;100.00;101946.78;5083006;28;20028;-69
2023/05/04 05:21:06;;;;;;;24.38;12.57;;;;;;;6.70;100.00;101941.75;5080677;28;20024;-70
2023/05/04 05:23:31;;;;;;;23.25;12.27;;;;;;;6.79;100.00;101942.09;5058469;28;20032;-70
2023/05/04 05:25:56;;;;;;;22.73;12.52;;;;;;;6.86;100.00;101940.59;5085933;28;20485;-72
2023/05/04 05:28:22;;;;;;;23.98;12.23;;;;;;;6.92;100.00;101946.09;5085099;28;20486;-69
2023/05/04 05:30:50;;;;;;;24.98;12.68;;;;;;;7.03;100.00;101947.34;5085786;28;20089;-69
2023/05/04 05:33:16;;;;;;;23.63;12.20;;;;;;;7.10;100.00;101948.50;5085794;28;20028;-70
2023/05/04 05:35:42;;;;;;;24.10;12.18;;;;;;;7.19;100.00;101943.53;5085189;28;20062;-70
2023/05/04 05:38:08;;;;;;;23.48;12.18;;;;;;;7.25;100.00;101949.06;5078411;28;20072;-73
2023/05/04 05:40:33;;;;;;;23.98;11.95;;;;;;;7.32;100.00;101945.78;5062382;28;20068;-79
2023/05/04 05:42:59;;;;;;;23.15;12.20;;;;;;;7.44;100.00;101949.66;5082665;28;20071;-80
2023/05/04 05:45:24;;;;;;;22.80;11.57;;;;;;;7.53;100.00;101947.38;5077358;28;20082;-76
2023/05/04 05:47:50;;;;;;;23.40;11.65;;;;;;;7.65;100.00;101950.41;5060844;28;20040;-73
2023/05/04 05:50:17;;;;;;;22.60;11.25;;;;;;;7.70;100.00;101936.53;5080671;28;20470;-78
2023/05/04 05:52:42;;;;;;;23.90;11.10;;;;;;;7.81;100.00;101945.69;5079497;28;20064;-72
2023/05/04 05:55:08;;;;;;;23.17;11.20;;;;;;;7.85;100.00;101939.69;5077956;28;20464;-71
2023/05/04 05:57:33;;;;;;;22.88;11.27;;;;;;;7.94;100.00;101934.69;5081530;28;20076;-74
2023/05/04 05:59:58;;;;;;;23.20;11.85;;;;;;;7.97;100.00;101936.53;5079700;28;20036;-71
2023/05/04 06:02:24;;;;;;;21.95;10.73;;;;;;;8.01;100.00;101935.81;5059161;28;20033;-73
2023/05/04 06:04:49;;;;;;;23.60;11.43;;;;;;;8.10;100.00;101938.72;5077944;28;20032;-71
2023/05/04 06:07:15;;;;;;;23.02;10.98;;;;;;;8.22;100.00;101932.06;5084575;28;20036;-71
2023/05/04 06:09:40;;;;;;;22.83;11.40;;;;;;;8.32;100.00;101921.84;5078570;28;20386;-69
2023/05/04 06:12:11;;;;;;;24.33;11.57;;;;;;;8.36;100.00;101922.84;5079145;28;20125;-70
2023/05/04 06:14:36;;;;;;;22.67;11.50;;;;;;;8.42;100.00;101916.84;5077803;28;20040;-71
2023/05/04 06:17:02;;;;;;;22.20;11.07;;;;;;;8.47;100.00;101918.81;5077192;28;20032;-68
2023/05/04 06:19:27;;;;;;;23.85;10.60;;;;;;;8.55;100.00;101913.78;5078171;28;20072;-69
2023/05/04 06:21:52;;;;;;;22.77;10.68;;;;;;;8.63;100.00;101909.59;5064561;28;20024;-70
2023/05/04 06:24:20;;;;;;;23.77;10.77;;;;;;;8.73;100.00;101906.38;5081473;28;20450;-70
2023/05/04 06:26:45;;;;;;;22.17;10.50;;;;;;;8.85;100.00;101895.34;5058509;28;20070;-71
2023/05/04 06:29:10;;;;;;;22.60;10.45;;;;;;;8.99;100.00;101903.59;5073937;28;20056;-71
2023/05/04 06:31:36;;;;;;;23.40;10.80;;;;;;;9.10;100.00;101906.56;5081452;28;20128;-72
2023/05/04 06:34:01;;;;;;;22.70;11.02;;;;;;;9.18;100.00;101893.56;5061205;28;20055;-70
2023/05/04 06:36:27;;;;;;;22.27;10.70;;;;;;;9.27;100.00;101891.16;5080661;28;20035;-71
2023/05/04 06:38:54;;;;;;;23.25;10.60;;;;;;;9.37;100.00;101897.59;5077392;28;20036;-74
2023/05/04 06:41:20;;;;;;;26.48;10.98;;;;;;;9.48;100.00;101897.84;5075553;28;20037;-73
2023/05/04 06:43:45;;;;;;;24.00;10.40;;;;;;;9.56;100.00;101894.53;5077647;28;20486;-77
2023/05/04 06:46:10;;;;;;;22.88;10.93;;;;;;;9.63;100.00;101892.09;5072970;28;20123;-71
2023/05/04 06:48:36;;;;;;;23.13;10.30;;;;;;;9.76;100.00;101892.41;5073741;28;20020;-73
2023/05/04 06:51:01;;;;;;;24.45;10.32;;;;;;;9.84;100.00;101894.34;5077726;28;20028;-74
2023/05/04 06:53:27;;;;;;;22.88;10.15;;;;;;;9.97;100.00;101891.13;5074047;28;20035;-71
2023/05/04 06:55:52;;;;;;;24.60;10.90;;;;;;;10.05;98.51;101886.94;5073070;28;20021;-68
2023/05/04 06:58:18;;;;;;;21.55;9.90;;;;;;;10.17;96.07;101891.59;5076087;28;20425;-70
2023/05/04 07:00:44;;;;;;;22.40;10.07;;;;;;;10.23;96.10;101880.28;5057389;28;20387;-70
2023/05/04 07:03:09;;;;;;;23.98;10.63;;;;;;;10.41;98.20;101888.66;5072254;28;20035;-70
2023/05/04 07:05:37;;;;;;;23.02;10.18;;;;;;;10.50;93.49;101882.66;5077310;28;20047;-70
2023/05/04 07:08:03;;;;;;;21.67;9.98;;;;;;;10.56;92.70;101881.91;5076682;28;20031;-69
2023/05/04 07:10:28;;;;;;;23.77;9.95;;;;;;;10.68;91.22;101874.22;5074927;28;20448;-70
2023/05/04 07:12:54;;;;;;;23.33;10.23;;;;;;;10.75;95.00;101870.84;5077801;28;20115;-69
2023/05/04 07:15:19;;;;;;;24.00;10.75;;;;;;;10.84;90.46;101870.13;5076068;28;20027;-70
2023/05/04 07:17:45;;;;;;;22.45;10.05;;;;;;;10.93;91.14;101870.28;5071807;28;20043;-67
2023/05/04 07:20:12;;;;;;;23.65;10.20;;;;;;;11.06;89.37;101862.59;5079151;28;20029;-70
2023/05/04 07:22:38;;;;;;;22.30;9.98;;;;;;;11.16;86.58;101865.44;5078574;28;20103;-68
2023/05/04 07:25:04;;;;;;;23.33;10.07;;;;;;;11.34;88.11;101863.97;5078490;28;20451;-68
2023/05/04 07:27:29;;;;;;;23.63;9.93;;;;;;;11.49;86.46;101850.13;5047388;28;20039;-68
2023/05/04 07:29:55;;;;;;;22.13;9.65;;;;;;;11.75;84.74;101849.63;5077388;28;20051;-69
2023/05/04 07:32:20;;;;;;;21.67;9.80;;;;;;;11.91;84.86;101851.66;5079216;28;20036;-69
2023/05/04 07:34:45;;;;;;;22.67;9.55;;;;;;;12.03;77.49;101848.34;5076297;28;20143;-68
2023/05/04 07:37:12;;;;;;;21.60;9.50;;;;;;;12.21;78.55;101855.63;5060343;28;20020;-68
2023/05/04 07:39:37;;;;;;;22.38;9.70;;;;;;;12.41;76.89;101850.59;5079205;28;20036;-68
2023/05/04 07:42:03;;;;;;;22.02;9.30;;;;;;;12.47;73.61;101847.16;5077543;28;20028;-68
2023/05/04 07:44:30;;;;;;;22.70;9.57;;;;;;;12.58;72.84;101857.88;5079182;28;20035;-68
2023/05/04 07:46:57;;;;;;;21.92;9.00;;;;;;;12.63;70.36;101853.53;5074295;28;20421;-69
2023/05/04 07:49:22;;;;;;;21.38;9.55;;;;;;;12.72;71.11;101851.84;5076689;28;20036;-70
2023/05/04 07:51:47;;;;;;;21.60;9.77;;;;;;;12.84;73.20;101851.13;5078028;28;20036;-69
2023/05/04 07:54:14;;;;;;;20.98;9.25;;;;;;;12.95;71.45;101845.91;5078913;28;20483;-72
2023/05/04 07:56:39;;;;;;;22.52;8.95;;;;;;;13.08;72.90;101850.47;5079765;28;20118;-69
2023/05/04 07:59:05;;;;;;;22.77;9.00;;;;;;;13.20;69.96;101848.81;5083022;28;20127;-69
2023/05/04 08:01:30;;;;;;;24.85;9.40;;;;;;;13.35;68.78;101837.47;5083642;28;20485;-68
2023/05/04 08:03:56;;;;;;;21.00;9.40;;;;;;;13.58;65.99;101846.50;5081468;28;20029;-73
2023/05/04 08:06:21;;;;;;;21.25;8.88;;;;;;;13.81;64.42;101843.16;5075738;28;20028;-76
2023/05/04 08:08:48;;;;;;;21.73;8.98;;;;;;;14.08;64.03;101844.19;5079069;28;20131;-76
2023/05/04 08:11:14;;;;;;;20.38;8.82;;;;;;;14.34;64.00;101838.13;5075651;28;20056;-77
2023/05/04 08:13:40;;;;;;;21.55;9.13;;;;;;;14.61;62.62;101832.03;5079902;28;20531;-78
2023/05/04 08:16:08;;;;;;;20.83;9.07;;;;;;;14.86;63.63;101830.34;5079119;28;20054;-78
2023/05/04 08:18:33;;;;;;;22.98;9.10;;;;;;;15.16;62.50;101825.97;5076647;28;20062;-70
2023/05/04 08:20:58;;;;;;;21.35;8.88;;;;;;;15.45;60.43;101819.75;5077097;28;20033;-70
2023/05/04 08:23:24;;;;;;;20.75;9.02;;;;;;;15.79;60.06;101822.41;5077275;28;20028;-68
2023/05/04 08:25:51;;;;;;;22.92;9.30;;;;;;;15.88;56.73;101817.06;5061190;28;20029;-68
2023/05/04 08:28:17;;;;;;;21.10;8.55;;;;;;;16.04;56.56;101812.56;5078630;28;20040;-70
2023/05/04 08:30:42;;;;;;;20.55;8.68;;;;;;;16.17;56.29;101818.75;5080547;28;20032;-70
2023/05/04 08:33:07;;;;;;;21.10;8.90;;;;;;;16.56;55.37;101823.03;5077508;28;20067;-70
2023/05/04 08:35:33;;;;;;;21.30;8.98;;;;;;;16.79;55.05;101816.69;5076110;28;20055;-69
2023/05/04 08:37:58;;;;;;;20.75;8.68;;;;;;;16.96;52.88;101819.25;5074836;28;20134;-68
2023/05/04 08:40:24;;;;;;;20.63;8.60;;;;;;;17.01;52.87;101814.78;5076788;28;20033;-68
2023/05/04 08:42:51;;;;;;;23.98;9.27;;;;;;;17.28;52.97;101806.59;5080103;28;20032;-68
2023/05/04 08:45:16;;;;;;;20.05;8.93;;;;;;;17.66;51.41;101805.34;5072271;28;20095;-67
2023/05/04 08:47:43;;;;;;;22.08;8.85;;;;;;;17.83;51.38;101805.19;5073375;28;20170;-68
2023/05/04 08:50:10;;;;;;;20.58;8.60;;;;;;;18.07;50.06;101790.66;5075754;28;20063;-67
2023/05/04 08:52:41;;;;;;;20.85;8.52;;;;;;;18.33;48.67;101787.66;5079699;28;20032;-67
2023/05/04 08:55:10;;;;;;;20.70;8.95;;;;;;;18.62;47.39;101781.03;5076419;28;20031;-68
2023/05/04 08:57:36;;;;;;;19.70;8.38;;;;;;;18.87;48.30;101765.50;5073411;28;20035;-70
2023/05/04 09:00:04;;;;;;;21.83;8.50;;;;;;;18.98;48.23;101766.22;5082752;28;20036;-69
2023/05/04 09:02:32;;;;;;;22.35;8.63;;;;;;;19.12;47.36;101775.81;5084021;28;20059;-69
2023/05/04 09:04:57;;;;;;;21.08;8.55;;;;;;;19.12;47.75;101760.66;5078642;28;20351;-69
2023/05/04 09:07:23;;;;;;;21.13;8.93;;;;;;;18.86;49.80;101765.47;5080749;28;20044;-68
2023/05/04 09:09:50;;;;;;;22.48;8.55;;;;;;;18.34;48.80;101765.34;5080595;28;20040;-69
2023/05/04 09:12:16;;;;;;;20.02;8.50;;;;;;;18.31;49.74;101765.38;5085734;28;20021;-69
2023/05/04 09:14:42;;;;;;;22.25;8.45;;;;;;;18.74;48.59;101756.75;5085739;28;20050;-71
2023/05/04 09:17:16;;;;;;;21.90;8.82;;;;;;;19.42;47.76;101763.69;5085720;28;20463;-70
2023/05/04 09:19:43;;;;;;;21.63;8.85;;;;;;;20.05;46.95;101761.59;5085095;28;20078;-69
2023/05/04 09:22:18;;;;;;;21.00;8.88;;;;;;;20.63;45.31;101761.25;5086945;28;20055;-69
2023/05/04 09:24:45;;;;;;;19.25;8.25;;;;;;;20.95;41.89;101754.25;5084151;28;20488;-67
2023/05/04 09:27:12;;;;;;;21.17;8.63;;;;;;;21.04;42.80;101760.31;5087131;28;20585;-68
2023/05/04 09:29:39;;;;;;;20.48;8.50;;;;;;;21.47;42.17;101758.28;5084384;28;20044;-68
2023/05/04 09:32:08;;;;;;;21.85;8.50;;;;;;;21.96;41.27;101761.47;5087267;28;20420;-68
2023/05/04 09:34:36;;;;;;;22.90;8.73;;;;;;;22.23;41.29;101761.56;5066180;28;20434;-69
2023/05/04 09:37:02;;;;;;;20.77;8.10;;;;;;;22.08;39.14;101761.09;5086729;28;20024;-69
2023/05/04 09:39:28;;;;;;;21.83;8.32;;;;;;;22.61;41.49;101752.31;5080529;28;20032;-68
2023/05/04 09:41:54;;;;;;;20.60;8.20;;;;;;;22.92;39.55;101742.38;5086116;28;20043;-68
2023/05/04 09:44:21;;;;;;;21.58;8.38;;;;;;;23.17;38.04;101734.38;5081353;28;20467;-71
2023/05/04 09:46:57;;;;;;;18.83;7.38;;;;;;;23.75;39.02;101744.91;5086142;28;20107;-69
2023/05/04 09:49:37;;;;;;;21.98;7.70;;;;;;;24.59;36.54;101747.16;5080950;28;20037;-70
2023/05/04 09:52:04;;;;;;;20.20;7.70;;;;;;;25.02;34.42;101743.59;5077007;28;20032;-72
2023/05/04 09:54:34;;;;;;;20.13;7.55;;;;;;;25.42;35.65;101741.00;5079920;28;20020;-69
2023/05/04 09:57:12;;;;;;;21.45;8.00;;;;;;;26.10;34.91;101737.97;5086515;28;20493;-69
2023/05/04 09:59:38;;;;;;;19.73;7.50;;;;;;;26.83;32.18;101743.50;5082719;28;20649;-71
2023/05/04 10:02:04;;;;;;;19.15;7.38;;;;;;;26.72;32.00;101735.94;5085560;28;20107;-68
2023/05/04 10:04:32;;;;;;;19.70;7.38;;;;;;;26.88;31.19;101724.28;5065439;28;20036;-71
2023/05/04 10:06:59;;;;;;;20.45;7.80;;;;;;;26.32;31.40;101726.13;5086174;28;20028;-69
2023/05/04 10:09:29;;;;;;;19.52;7.57;;;;;;;26.16;33.15;101720.56;5083919;28;20086;-69
2023/05/04 10:11:57;;;;;;;21.33;7.90;;;;;;;26.76;32.25;101706.81;5085229;28;20102;-71
2023/05/04 10:14:23;;;;;;;21.92;7.68;;;;;;;26.67;30.99;101699.97;5084462;28;20103;-69
2023/05/04 10:16:58;;;;;;;20.38;7.78;;;;;;;26.95;32.01;101694.09;5084232;28;20434;-72
2023/05/04 10:19:51;;;;;;;21.98;7.70;;;;;;;27.66;31.62;101687.63;5072060;28;20024;-70
2023/05/04 10:22:48;;;;;;;18.95;7.22;;;;;;;28.47;30.50;101678.63;5083247;28;20063;-69
2023/05/04 10:25:26;;;;;;;21.05;7.63;;;;;;;29.05;28.46;101681.59;5075693;28;20107;-69
2023/05/04 10:28:15;;;;;;;20.83;7.88;;;;;;;29.16;28.00;101673.66;5083271;28;20123;-68
2023/05/04 10:30:41;;;;;;;19.90;8.10;;;;;;;28.98;28.70;101656.63;5070971;28;20037;-80
2023/05/04 10:33:06;;;;;;;19.85;7.68;;;;;;;29.64;27.84;101650.78;5071693;28;20039;-80
2023/05/04 10:35:31;;;;;;;19.85;7.65;;;;;;;29.45;27.38;101651.94;5075260;28;20032;-78
2023/05/04 10:37:57;;;;;;;20.13;7.78;;;;;;;29.37;27.88;101649.72;5058323;28;20128;-72
2023/05/04 10:40:37;;;;;;;22.10;8.30;;;;;;;29.86;28.90;101645.72;5072756;28;20033;-71
2023/05/04 10:43:05;;;;;;;19.67;7.93;;;;;;;30.63;27.21;101631.59;5077615;28;20036;-71
2023/05/04 10:45:36;;;;;;;24.40;8.40;;;;;;;30.35;28.56;101627.09;5075451;28;20048;-70
2023/05/04 10:48:01;;;;;;;20.10;7.80;;;;;;;30.15;25.90;101615.69;5073208;28;20506;-71
2023/05/04 10:50:27;;;;;;;22.23;8.38;;;;;;;30.30;27.22;101616.50;5074760;28;20064;-79
2023/05/04 10:52:53;;;;;;;19.52;8.07;;;;;;;30.91;27.11;101606.00;5076605;28;20048;-79
2023/05/04 10:55:19;;;;;;;19.92;7.43;;;;;;;30.79;26.25;101598.69;5080302;28;20021;-78
2023/05/04 10:57:55;;;;;;;19.35;7.43;;;;;;;30.20;27.44;101594.47;5079053;28;20073;-78
2023/05/04 11:00:21;;;;;;;20.17;7.15;;;;;;;30.66;25.79;101595.06;5077562;28;20028;-78
2023/05/04 11:02:48;;;;;;;18.85;6.63;;;;;;;30.42;25.11;101591.19;5072391;28;20473;-76
2023/05/04 11:05:18;;;;;;;18.65;6.65;;;;;;;29.52;26.20;101582.50;5078049;28;20054;-79
2023/05/04 11:07:45;;;;;;;18.83;6.80;;;;;;;28.58;26.65;101584.69;5074734;28;20463;-78
2023/05/04 11:10:25;;;;;;;18.83;6.25;;;;;;;28.74;27.04;101569.19;5080880;28;20041;-78
2023/05/04 11:12:51;;;;;;;19.45;6.57;;;;;;;28.50;26.40;101582.44;5056554;28;20474;-70